CES3 weather

Edmonton / St. Albert (Delta Helicopters) Heliport
Edmonton, Alberta, Canada

Public forecast

Using degrees Celsius for public forecast. Weather courtesy of forecast.io.

METAR (pilot weather report)

Closest report is Edmonton / Villeneuve Airport, 6.0 nm (11.2 km) W. Retrieved 2019/07/20 17:20 UTC (13 minutes ago):

CZVL 201720Z AUTO 34005KT 290V360 9SM SCT012 BKN049 17/14 A3010 RMK SLP200 DENSITY ALT 2700FT

TAF (pilot weather forecast)

Closest forecast is Edmonton / Villeneuve Airport, 6.0 nm (11.2 km) W. Retrieved 2019/07/20 12:00 UTC (6 hours ago):

TAF CZVL 201149Z 2012/2024 32008KT P6SM FEW008 BKN025 BKN100 TEMPO 2012/2015 5SM BR BKN008 OVC025 FM201500 31008KT P6SM SCT020 BKN060 TEMPO 2015/2018 P6SM -SHRA BKN020 BKN060 FM201800 VRB03KT P6SM VCSH BKN040 RMK FCST BASED ON AUTO OBS. NXT FCST BY 201800Z